Terminal Aerodrome Forecast
Issued by NWS Wakefield, VA

Home | Current Version | Previous Version | Text Only | Print | Product List | Glossary On
Versions: 1 2 3 4 5 6 7 8 9 10 11 12 13 14 15 16 17 18 19 20 21
000
FTUS41 KAKQ 251727
TAFECG
TAF
KECG 251727Z 2518/2618 21009KT P6SM VCSH SCT025 BKN080
     FM252000 22010KT P6SM -SHRA BKN080
     FM260100 25004KT P6SM SCT090
     FM261000 31004KT P6SM SCT150
     FM261400 01005KT P6SM SCT080=

USA.gov is the U.S. government's official web portal to all federal, state and local government web resources and services.